Time;durP1;ratioP1;P1;durP2;ratioP2;P2;SDS_P1;SDS_P2;PMS_P1;PMS_P2;Temp;Humidity;BMP_temperature;BMP_pressure;BME280_temperature;BME280_humidity;BME280_pressure;Samples;Min_cycle;Max_cycle;Signal;HPM_P1;HPM_P2
2022/01/13 00:01:40;;;;;;;;;;;;;;;-0.93;nan;102973.69;5003343;28;20064;-84
2022/01/13 00:04:05;;;;;;;;;;;;;;;-0.88;nan;102971.91;5004169;28;19926;-84
2022/01/13 00:06:31;;;;;;;;;;;;;;;-0.85;nan;102984.00;5009968;28;20406;-85
2022/01/13 00:08:56;;;;;;;;;;;;;;;-0.87;nan;102986.59;5034622;28;20358;-85
2022/01/13 00:11:21;;;;;;;;;;;;;;;-0.83;nan;102974.44;5010602;28;19929;-84
2022/01/13 00:14:06;;;;;;;;;;;;;;;-0.83;nan;102966.66;5003820;28;19964;-84
2022/01/13 00:19:16;;;;;;;;;;;;;;;-0.83;nan;102979.63;5032385;28;19921;-84
2022/01/13 00:21:50;;;;;;;;;;;;;;;-0.93;nan;102976.28;5034624;28;19922;-84
2022/01/13 00:24:15;;;;;;;;;;;;;;;-0.94;nan;102968.50;5028437;28;20406;-84
2022/01/13 00:26:42;;;;;;;;;;;;;;;-0.95;nan;102975.44;5039381;28;19925;-84
2022/01/13 00:29:09;;;;;;;;;;;;;;;-0.95;nan;102980.63;5038604;28;20375;-84
2022/01/13 00:31:38;;;;;;;;;;;;;;;-0.93;nan;102976.28;5038742;28;20382;-84
2022/01/13 00:34:04;;;;;;;;;;;;;;;-0.90;nan;102981.44;5029015;28;20354;-84
2022/01/13 00:36:30;;;;;;;;;;;;;;;-0.87;nan;102981.41;5037676;28;19984;-84
2022/01/13 00:38:56;;;;;;;;;;;;;;;-0.85;nan;102984.00;5038221;28;20581;-83
2022/01/13 00:41:23;;;;;;;;;;;;;;;-0.80;nan;102987.38;5034197;28;20024;-84
2022/01/13 00:43:49;;;;;;;;;;;;;;;-0.78;nan;102985.63;5039060;28;19924;-84
2022/01/13 00:46:21;;;;;;;;;;;;;;;-0.77;nan;102982.16;5031951;28;19921;-84
2022/01/13 00:48:46;;;;;;;;;;;;;;;-0.77;nan;102976.09;5033574;28;20290;-85
2022/01/13 00:51:12;;;;;;;;;;;;;;;-0.76;nan;102973.50;5038141;28;19964;-84
2022/01/13 00:53:38;;;;;;;;;;;;;;;-0.76;nan;102973.50;5029397;28;21301;-84
2022/01/13 00:56:04;;;;;;;;;;;;;;;-0.79;nan;102970.06;5031132;28;19953;-84
2022/01/13 00:58:30;;;;;;;;;;;;;;;-0.81;nan;102979.59;5033986;28;20367;-82
2022/01/13 01:00:56;;;;;;;;;;;;;;;-0.81;nan;102990.00;5026303;28;19929;-84
2022/01/13 01:03:21;;;;;;;;;;;;;;;-0.79;nan;102983.03;5028977;28;19917;-83
2022/01/13 01:05:46;;;;;;;;;;;;;;;-0.87;nan;102994.38;5031470;28;19929;-84
2022/01/13 01:08:12;;;;;;;;;;;;;;;-0.99;nan;102991.06;5024969;28;20007;-83
2022/01/13 01:10:38;;;;;;;;;;;;;;;-1.13;nan;102993.81;5026048;28;19921;-83
2022/01/13 01:13:11;;;;;;;;;;;;;;;-1.23;nan;102987.84;5027513;28;19921;-83
2022/01/13 01:15:37;;;;;;;;;;;;;;;-1.29;nan;102991.38;5024211;28;19928;-83
2022/01/13 01:18:12;;;;;;;;;;;;;;;-1.34;nan;102993.13;5035575;28;20301;-83
2022/01/13 01:20:48;;;;;;;;;;;;;;;-1.35;nan;102981.03;5023091;28;19974;-84
2022/01/13 01:23:17;;;;;;;;;;;;;;;-1.37;nan;102989.72;5025446;28;19921;-84
2022/01/13 01:25:48;;;;;;;;;;;;;;;-1.39;nan;102989.72;5031552;28;20023;-84
2022/01/13 01:28:21;;;;;;;;;;;;;;;-1.32;nan;102990.53;5022486;28;19924;-84
2022/01/13 01:30:49;;;;;;;;;;;;;;;-1.24;nan;102995.66;5039423;28;19929;-83
2022/01/13 01:33:17;;;;;;;;;;;;;;;-1.20;nan;102985.22;5033247;28;19921;-83
2022/01/13 01:35:43;;;;;;;;;;;;;;;-1.21;nan;102988.69;5026036;28;19967;-84
2022/01/13 01:38:09;;;;;;;;;;;;;;;-1.20;nan;102986.97;5035353;28;19921;-84
2022/01/13 01:40:34;;;;;;;;;;;;;;;-1.22;nan;102992.16;5031440;28;20004;-83
2022/01/13 01:42:59;;;;;;;;;;;;;;;-1.23;nan;102987.84;5018979;28;19953;-83
2022/01/13 01:45:31;;;;;;;;;;;;;;;-1.31;nan;102987.09;5028403;28;20046;-82
2022/01/13 01:47:56;;;;;;;;;;;;;;;-1.39;nan;102988.88;5034017;28;19977;-82
2022/01/13 01:50:24;;;;;;;;;;;;;;;-1.39;nan;102986.28;5028056;28;20015;-84
2022/01/13 01:52:51;;;;;;;;;;;;;;;-1.39;nan;102976.75;5030018;28;19925;-84
2022/01/13 01:55:16;;;;;;;;;;;;;;;-1.42;nan;102976.78;5037833;28;19921;-84
2022/01/13 01:57:42;;;;;;;;;;;;;;;-1.44;nan;102982.88;5034651;28;19951;-83
2022/01/13 02:00:10;;;;;;;;;;;;;;;-1.47;nan;102972.53;5039536;28;19917;-85
2022/01/13 02:02:35;;;;;;;;;;;;;;;-1.50;nan;102974.25;5036741;28;19921;-84
2022/01/13 02:05:00;;;;;;;;;;;;;;;-1.59;nan;102970.91;5032603;28;20397;-83
2022/01/13 02:07:25;;;;;;;;;;;;;;;-1.68;nan;102969.22;5028153;28;20067;-84
2022/01/13 02:09:53;;;;;;;;;;;;;;;-1.70;nan;102978.75;5031698;28;19921;-83
2022/01/13 02:12:30;;;;;;;;;;;;;;;-1.72;nan;102980.50;5033063;28;19936;-84
2022/01/13 02:15:15;;;;;;;;;;;;;;;-1.83;nan;102975.41;5031143;28;19921;-83
2022/01/13 02:17:41;;;;;;;;;;;;;;;-1.87;nan;102980.63;5031847;28;19940;-83
2022/01/13 02:20:08;;;;;;;;;;;;;;;-1.87;nan;102972.84;5040369;28;20378;-83
2022/01/13 02:22:33;;;;;;;;;;;;;;;-1.87;nan;102970.25;5038036;28;19956;-84
2022/01/13 02:24:59;;;;;;;;;;;;;;;-1.88;nan;102973.69;5032344;28;20370;-84
2022/01/13 02:27:24;;;;;;;;;;;;;;;-1.90;nan;102973.72;5041817;28;20016;-84
2022/01/13 02:29:49;;;;;;;;;;;;;;;-1.88;nan;102965.91;5039420;28;19921;-83
2022/01/13 02:32:15;;;;;;;;;;;;;;;-1.93;nan;102958.22;5028234;28;20326;-84
2022/01/13 02:34:40;;;;;;;;;;;;;;;-1.92;nan;102960.78;5039040;28;20298;-85
2022/01/13 02:37:06;;;;;;;;;;;;;;;-1.94;nan;102946.94;5032933;28;20075;-85
2022/01/13 02:39:31;;;;;;;;;;;;;;;-1.93;nan;102947.84;5039912;28;19932;-84
2022/01/13 02:41:57;;;;;;;;;;;;;;;-1.92;nan;102952.13;5024405;28;19918;-83
2022/01/13 02:44:24;;;;;;;;;;;;;;;-1.78;nan;102954.63;5021522;28;20061;-84
2022/01/13 02:49:16;;;;;;;;;;;;;;;-1.72;nan;102954.56;5041449;28;19921;-84
2022/01/13 02:51:43;;;;;;;;;;;;;;;-1.73;nan;102958.03;5033521;28;19933;-84
2022/01/13 02:54:09;;;;;;;;;;;;;;;-1.73;nan;102955.44;5037747;28;19924;-84
2022/01/13 02:56:34;;;;;;;;;;;;;;;-1.71;nan;102953.69;5036523;28;19921;-83
2022/01/13 02:59:00;;;;;;;;;;;;;;;-1.70;nan;102945.03;5041656;28;20032;-84
2022/01/13 03:01:25;;;;;;;;;;;;;;;-1.63;nan;102957.06;5028980;28;19943;-85
2022/01/13 03:03:51;;;;;;;;;;;;;;;-1.63;nan;102949.28;5032258;28;19922;-83
2022/01/13 03:06:21;;;;;;;;;;;;;;;-1.74;nan;102953.72;5040004;28;19922;-83
2022/01/13 03:08:49;;;;;;;;;;;;;;;-1.84;nan;102962.44;5039040;28;19921;-82
2022/01/13 03:11:15;;;;;;;;;;;;;;;-1.94;nan;102962.50;5041209;28;19948;-82
2022/01/13 03:13:40;;;;;;;;;;;;;;;-1.97;nan;102966.88;5032381;28;20364;-83
2022/01/13 03:16:09;;;;;;;;;;;;;;;-1.92;nan;102965.94;5035111;28;19948;-83
2022/01/13 03:18:35;;;;;;;;;;;;;;;-1.88;nan;102960.75;5040817;28;19921;-84
2022/01/13 03:21:00;;;;;;;;;;;;;;;-1.85;nan;102960.75;5036742;28;19967;-83
2022/01/13 03:23:26;;;;;;;;;;;;;;;-1.83;nan;102959.00;5039763;28;19925;-84
2022/01/13 03:25:51;;;;;;;;;;;;;;;-1.83;nan;102959.00;5036680;28;20414;-84
2022/01/13 03:28:28;;;;;;;;;;;;;;;-1.86;nan;102951.22;5033234;28;19928;-84
2022/01/13 03:30:53;;;;;;;;;;;;;;;-1.85;nan;102946.03;5027844;28;19926;-84
2022/01/13 03:33:18;;;;;;;;;;;;;;;-1.87;nan;102946.91;5034985;28;19928;-83
2022/01/13 03:35:43;;;;;;;;;;;;;;;-1.99;nan;102945.28;5036659;28;19925;-84
2022/01/13 03:38:09;;;;;;;;;;;;;;;-2.06;nan;102947.03;5039296;28;19928;-84
2022/01/13 03:40:35;;;;;;;;;;;;;;;-2.04;nan;102949.63;5033237;28;19930;-85
2022/01/13 03:43:01;;;;;;;;;;;;;;;-2.08;nan;102950.53;5040620;28;19963;-84
2022/01/13 03:45:27;;;;;;;;;;;;;;;-2.10;nan;102960.88;5038937;28;19925;-85
2022/01/13 03:47:53;;;;;;;;;;;;;;;-2.05;nan;102958.28;5036363;28;19924;-83
2022/01/13 03:50:18;;;;;;;;;;;;;;;-2.01;nan;102954.78;5025394;28;19980;-84
2022/01/13 03:53:02;;;;;;;;;;;;;;;-2.08;nan;102959.16;5037147;28;19925;-83
2022/01/13 03:55:36;;;;;;;;;;;;;;;-2.01;nan;102958.25;5035950;28;19925;-84
2022/01/13 03:58:20;;;;;;;;;;;;;;;-1.94;nan;102961.66;5027389;28;19921;-85
2022/01/13 04:01:04;;;;;;;;;;;;;;;-1.93;nan;102959.06;5035568;28;19921;-83
2022/01/13 04:03:29;;;;;;;;;;;;;;;-1.92;nan;102962.50;5022168;28;19925;-84
2022/01/13 04:06:08;;;;;;;;;;;;;;;-1.92;nan;102958.19;5034047;28;19921;-81
2022/01/13 04:08:34;;;;;;;;;;;;;;;-1.91;nan;102959.03;5032626;28;20051;-83
2022/01/13 04:11:11;;;;;;;;;;;;;;;-1.96;nan;102958.22;5041194;28;19948;-83
2022/01/13 04:13:57;;;;;;;;;;;;;;;-2.05;nan;102953.09;5043389;28;19928;-82
2022/01/13 04:16:28;;;;;;;;;;;;;;;-2.01;nan;102955.66;5035525;28;19987;-84
2022/01/13 04:18:58;;;;;;;;;;;;;;;-2.01;nan;102949.59;5025452;28;19921;-84
2022/01/13 04:21:23;;;;;;;;;;;;;;;-2.04;nan;102954.81;5028518;28;19921;-83
2022/01/13 04:23:49;;;;;;;;;;;;;;;-2.05;nan;102953.97;5039408;28;20011;-83
2022/01/13 04:26:18;;;;;;;;;;;;;;;-2.06;nan;102957.41;5036865;28;19947;-84
2022/01/13 04:28:44;;;;;;;;;;;;;;;-2.04;nan;102960.00;5031178;28;20023;-84
2022/01/13 04:31:09;;;;;;;;;;;;;;;-2.11;nan;102966.97;5037271;28;20381;-83
2022/01/13 04:33:36;;;;;;;;;;;;;;;-2.17;nan;102962.69;5038889;28;19921;-85
2022/01/13 04:36:02;;;;;;;;;;;;;;;-2.26;nan;102960.16;5038684;28;19921;-84
2022/01/13 04:38:28;;;;;;;;;;;;;;;-2.26;nan;102956.72;5030712;28;19921;-85
2022/01/13 04:40:58;;;;;;;;;;;;;;;-2.23;nan;102946.31;5031087;28;19948;-85
2022/01/13 04:43:24;;;;;;;;;;;;;;;-2.23;nan;102954.09;5024126;28;19921;-82
2022/01/13 04:45:50;;;;;;;;;;;;;;;-2.20;nan;102957.50;5022495;28;19968;-81
2022/01/13 04:48:16;;;;;;;;;;;;;;;-2.13;nan;102961.78;5026437;28;19949;-83
2022/01/13 04:50:42;;;;;;;;;;;;;;;-2.06;nan;102951.38;5037457;28;19921;-84
2022/01/13 04:53:07;;;;;;;;;;;;;;;-2.14;nan;102951.44;5024667;28;20376;-84
2022/01/13 04:55:35;;;;;;;;;;;;;;;-2.13;nan;102956.59;5028804;28;19928;-82
2022/01/13 04:58:01;;;;;;;;;;;;;;;-2.07;nan;102963.50;5025413;28;19967;-83
2022/01/13 05:00:27;;;;;;;;;;;;;;;-2.12;nan;102954.88;5035636;28;19921;-83
2022/01/13 05:02:52;;;;;;;;;;;;;;;-2.22;nan;102956.66;5040554;28;19985;-81
2022/01/13 05:05:18;;;;;;;;;;;;;;;-2.26;nan;102959.28;5041610;28;19928;-84
2022/01/13 05:07:43;;;;;;;;;;;;;;;-2.27;nan;102961.00;5040664;28;19929;-84
2022/01/13 05:10:09;;;;;;;;;;;;;;;-2.21;nan;102965.31;5041226;28;19928;-82
2022/01/13 05:12:41;;;;;;;;;;;;;;;-2.13;nan;102960.91;5039130;28;19978;-83
2022/01/13 05:15:08;;;;;;;;;;;;;;;-2.06;nan;102957.41;5038852;28;20323;-84
2022/01/13 05:17:58;;;;;;;;;;;;;;;-2.02;nan;102958.28;5037226;28;19921;-83
2022/01/13 05:20:26;;;;;;;;;;;;;;;-1.95;nan;102960.81;5039442;28;19921;-83
2022/01/13 05:22:51;;;;;;;;;;;;;;;-1.89;nan;102956.44;5026269;28;20170;-82
2022/01/13 05:25:17;;;;;;;;;;;;;;;-1.91;nan;102948.66;5021329;28;19928;-83
2022/01/13 05:27:43;;;;;;;;;;;;;;;-1.88;nan;102950.38;5035621;28;19929;-84
2022/01/13 05:30:09;;;;;;;;;;;;;;;-1.85;nan;102947.78;5038916;28;19996;-82
2022/01/13 05:32:34;;;;;;;;;;;;;;;-1.86;nan;102951.22;5031663;28;19925;-83
2022/01/13 05:34:59;;;;;;;;;;;;;;;-1.85;nan;102951.22;5039988;28;20432;-83
2022/01/13 05:37:25;;;;;;;;;;;;;;;-1.85;nan;102946.03;5039093;28;19921;-83
2022/01/13 05:39:50;;;;;;;;;;;;;;;-1.86;nan;102951.22;5039064;28;19928;-83
2022/01/13 05:42:16;;;;;;;;;;;;;;;-1.83;nan;102953.81;5038749;28;19992;-83
2022/01/13 05:44:41;;;;;;;;;;;;;;;-1.74;nan;102951.09;5029408;28;20248;-84
2022/01/13 05:47:07;;;;;;;;;;;;;;;-1.71;nan;102958.88;5030172;28;20012;-85
2022/01/13 05:49:32;;;;;;;;;;;;;;;-1.67;nan;102952.78;5040467;28;19925;-83
2022/01/13 05:51:57;;;;;;;;;;;;;;;-1.61;nan;102952.75;5040018;28;19940;-83
2022/01/13 05:54:23;;;;;;;;;;;;;;;-1.54;nan;102957.00;5037707;28;19921;-82
2022/01/13 05:56:48;;;;;;;;;;;;;;;-1.52;nan;102957.84;5040621;28;19921;-85
2022/01/13 05:59:13;;;;;;;;;;;;;;;-1.55;nan;102960.47;5034391;28;20330;-84
2022/01/13 06:01:38;;;;;;;;;;;;;;;-1.57;nan;102964.81;5033453;28;19957;-82
2022/01/13 06:04:04;;;;;;;;;;;;;;;-1.53;nan;102971.69;5036573;28;19928;-85
2022/01/13 06:06:29;;;;;;;;;;;;;;;-1.44;nan;102973.34;5033857;28;20695;-83
2022/01/13 06:08:54;;;;;;;;;;;;;;;-1.38;nan;102975.00;5044217;28;19967;-84
2022/01/13 06:11:22;;;;;;;;;;;;;;;-1.35;nan;102981.03;5025284;28;19936;-84
2022/01/13 06:13:47;;;;;;;;;;;;;;;-1.32;nan;102981.00;5032582;28;19932;-83
2022/01/13 06:16:13;;;;;;;;;;;;;;;-1.25;nan;102986.16;5041260;28;19921;-82
2022/01/13 06:18:38;;;;;;;;;;;;;;;-1.23;nan;102989.59;5033740;28;20034;-83
2022/01/13 06:21:04;;;;;;;;;;;;;;;-1.27;nan;102983.56;5043521;28;19932;-83
2022/01/13 06:23:29;;;;;;;;;;;;;;;-1.30;nan;102981.84;5046174;28;19921;-84
2022/01/13 06:25:55;;;;;;;;;;;;;;;-1.22;nan;102983.50;5042357;28;19925;-81
2022/01/13 06:28:20;;;;;;;;;;;;;;;-1.20;nan;102985.22;5041763;28;19925;-80
2022/01/13 06:30:45;;;;;;;;;;;;;;;-1.26;nan;102987.91;5048986;28;19932;-82
2022/01/13 06:33:11;;;;;;;;;;;;;;;-1.25;nan;102992.19;5042873;28;19939;-84
2022/01/13 06:35:36;;;;;;;;;;;;;;;-1.26;nan;102995.69;5043729;28;20008;-82
2022/01/13 06:38:01;;;;;;;;;;;;;;;-1.24;nan;102996.53;5041027;28;19925;-84
2022/01/13 06:40:27;;;;;;;;;;;;;;;-1.27;nan;103006.91;5038484;28;19928;-84
2022/01/13 06:42:52;;;;;;;;;;;;;;;-1.26;nan;103003.47;5033737;28;19928;-81
2022/01/13 06:45:17;;;;;;;;;;;;;;;-1.26;nan;103008.66;5031665;28;19944;-84
2022/01/13 06:47:42;;;;;;;;;;;;;;;-1.21;nan;103006.88;5039336;28;20030;-80
2022/01/13 06:50:08;;;;;;;;;;;;;;;-1.14;nan;103018.06;5041385;28;19928;-83
2022/01/13 06:52:34;;;;;;;;;;;;;;;-1.16;nan;103015.47;5040671;28;20458;-84
2022/01/13 06:54:59;;;;;;;;;;;;;;;-1.14;nan;103005.94;5044363;28;19921;-82
2022/01/13 06:57:24;;;;;;;;;;;;;;;-1.14;nan;103008.53;5026753;28;19921;-83
2022/01/13 06:59:49;;;;;;;;;;;;;;;-1.21;nan;103006.88;5032758;28;19992;-86
2022/01/13 07:02:15;;;;;;;;;;;;;;;-1.15;nan;103018.91;5038959;28;19929;-83
2022/01/13 07:04:40;;;;;;;;;;;;;;;-1.08;nan;103008.44;5038492;28;19921;-85
2022/01/13 07:07:06;;;;;;;;;;;;;;;-1.08;nan;103007.59;5024271;28;19928;-84
2022/01/13 07:09:31;;;;;;;;;;;;;;;-1.07;nan;103012.78;5036640;28;19952;-84
2022/01/13 07:11:56;;;;;;;;;;;;;;;-1.13;nan;103010.25;5037910;28;19922;-84
2022/01/13 07:14:21;;;;;;;;;;;;;;;-1.14;nan;103016.31;5031183;28;19921;-85
2022/01/13 07:16:47;;;;;;;;;;;;;;;-1.18;nan;103006.84;5018304;28;19948;-82
2022/01/13 07:19:13;;;;;;;;;;;;;;;-1.17;nan;103005.09;5018116;28;19925;-84
2022/01/13 07:21:39;;;;;;;;;;;;;;;-1.13;nan;103005.03;5020073;28;20367;-84
2022/01/13 07:24:05;;;;;;;;;;;;;;;-1.19;nan;103012.03;5021665;28;19960;-85
2022/01/13 07:26:30;;;;;;;;;;;;;;;-1.20;nan;103011.19;5009468;28;19925;-84
2022/01/13 07:28:56;;;;;;;;;;;;;;;-1.15;nan;103005.94;5006835;28;20017;-83
2022/01/13 07:31:21;;;;;;;;;;;;;;;-1.16;nan;102999.03;5022406;28;20027;-84
2022/01/13 07:33:47;;;;;;;;;;;;;;;-1.14;nan;103005.09;5000808;28;20291;-84
2022/01/13 07:36:12;;;;;;;;;;;;;;;-1.10;nan;103015.44;5001412;28;20019;-83
2022/01/13 07:38:37;;;;;;;;;;;;;;;-1.11;nan;103008.50;4999192;28;19921;-85
2022/01/13 07:41:02;;;;;;;;;;;;;;;-1.11;nan;103005.91;4999459;28;19925;-85
2022/01/13 07:43:28;;;;;;;;;;;;;;;-1.11;nan;103008.50;5000781;28;19930;-86
2022/01/13 07:45:54;;;;;;;;;;;;;;;-1.10;nan;103010.22;4998832;28;20035;-85
2022/01/13 07:48:19;;;;;;;;;;;;;;;-1.16;nan;103017.22;5007989;28;19949;-84
2022/01/13 07:50:45;;;;;;;;;;;;;;;-1.09;nan;103024.91;5016005;28;19937;-83
2022/01/13 07:53:10;;;;;;;;;;;;;;;-1.08;nan;103023.19;4986295;28;20380;-83
2022/01/13 07:55:35;;;;;;;;;;;;;;;-1.06;nan;103024.03;4998709;28;19917;-84
2022/01/13 07:58:01;;;;;;;;;;;;;;;-1.04;nan;103018.84;5000351;28;19922;-83
2022/01/13 08:00:26;;;;;;;;;;;;;;;-1.00;nan;103028.28;4999911;28;19956;-85
2022/01/13 08:02:51;;;;;;;;;;;;;;;-0.97;nan;103023.09;5017202;28;20065;-84
2022/01/13 08:05:16;;;;;;;;;;;;;;;-0.91;nan;103028.19;5018213;28;19918;-86
2022/01/13 08:07:42;;;;;;;;;;;;;;;-0.84;nan;103032.44;5007269;28;19918;-84
2022/01/13 08:10:08;;;;;;;;;;;;;;;-0.84;nan;103023.81;4998243;28;19922;-84
2022/01/13 08:12:33;;;;;;;;;;;;;;;-0.79;nan;103015.06;5006564;28;20272;-85
2022/01/13 08:14:58;;;;;;;;;;;;;;;-0.73;nan;103025.41;5000812;28;19918;-84
2022/01/13 08:20:08;;;;;;;;;;;;;;;-0.70;nan;103022.75;5011458;28;19971;-84
2022/01/13 08:22:33;;;;;;;;;;;;;;;-0.72;nan;103021.91;5033514;28;20410;-85
2022/01/13 08:24:59;;;;;;;;;;;;;;;-0.74;nan;103028.91;5029946;28;19918;-86
2022/01/13 08:27:24;;;;;;;;;;;;;;;-0.70;nan;103027.09;5031204;28;19960;-83
2022/01/13 08:29:49;;;;;;;;;;;;;;;-0.66;nan;103031.41;5031475;28;20456;-85
2022/01/13 08:32:14;;;;;;;;;;;;;;;-0.50;nan;103027.75;5032901;28;19928;-83
2022/01/13 08:34:40;;;;;;;;;;;;;;;-0.43;nan;103026.78;5038338;28;19956;-85
2022/01/13 08:37:05;;;;;;;;;;;;;;;-0.39;nan;103021.53;5022477;28;19918;-84
2022/01/13 08:39:37;;;;;;;;;;;;;;;-0.34;nan;103022.34;5002995;28;20390;-83
2022/01/13 08:42:02;;;;;;;;;;;;;;;-0.25;nan;103027.41;5017450;28;19932;-83
2022/01/13 08:44:28;;;;;;;;;;;;;;;-0.12;nan;103031.59;4997489;28;19922;-84
2022/01/13 08:46:53;;;;;;;;;;;;;;;-0.04;nan;103039.28;5016377;28;19917;-83
2022/01/13 08:49:18;;;;;;;;;;;;;;;0.08;nan;103030.44;5032718;28;19921;-84
2022/01/13 08:51:43;;;;;;;;;;;;;;;0.14;nan;103033.81;5008830;28;19925;-84
2022/01/13 08:54:08;;;;;;;;;;;;;;;0.28;nan;103032.72;5028416;28;19918;-85
2022/01/13 08:56:34;;;;;;;;;;;;;;;0.29;nan;103024.91;4997914;28;19921;-85
2022/01/13 08:58:59;;;;;;;;;;;;;;;0.34;nan;103030.91;5032082;28;20015;-85
2022/01/13 09:01:24;;;;;;;;;;;;;;;0.36;nan;103034.34;5001487;28;19983;-85
2022/01/13 09:03:49;;;;;;;;;;;;;;;0.48;nan;103030.69;5004992;28;20276;-85
2022/01/13 09:06:15;;;;;;;;;;;;;;;0.64;nan;103031.28;5036027;28;19917;-85
2022/01/13 09:08:40;;;;;;;;;;;;;;;0.73;nan;103025.91;5010997;28;19946;-86
2022/01/13 09:11:05;;;;;;;;;;;;;;;0.89;nan;103036.94;5016302;28;19922;-84
2022/01/13 09:13:36;;;;;;;;;;;;;;;0.94;nan;103029.88;5022247;28;20012;-85
2022/01/13 09:16:01;;;;;;;;;;;;;;;1.04;nan;103030.56;5021503;28;19922;-87
2022/01/13 09:19:10;;;;;;;;;;;;;;;1.07;nan;103033.09;5023090;28;19924;-85
2022/01/13 09:21:16;;;;;;;;;;;;;;;1.03;nan;103039.28;5017259;28;20295;-86
2022/01/13 09:23:41;;;;;;;;;;;;;;;1.08;nan;103032.22;5025083;28;19921;-86
2022/01/13 09:26:06;;;;;;;;;;;;;;;1.11;nan;103032.16;5041428;28;19993;-85
2022/01/13 09:28:35;;;;;;;;;;;;;;;1.20;nan;103036.34;5007915;28;19922;-85
2022/01/13 09:31:00;;;;;;;;;;;;;;;1.37;nan;103043.84;5038389;28;19921;-85
2022/01/13 09:33:25;;;;;;;;;;;;;;;1.43;nan;103039.38;5029405;28;19928;-85
2022/01/13 09:35:51;;;;;;;;;;;;;;;1.47;nan;103041.00;5003217;28;19927;-85
2022/01/13 09:38:16;;;;;;;;;;;;;;;1.45;nan;103035.00;5019036;28;20342;-86
2022/01/13 09:40:42;;;;;;;;;;;;;;;1.41;nan;103035.09;5000869;28;19914;-84
2022/01/13 09:43:08;;;;;;;;;;;;;;;1.52;nan;103035.69;5034633;28;19917;-85
2022/01/13 09:45:34;;;;;;;;;;;;;;;1.47;nan;103043.63;4992604;28;19922;-84
2022/01/13 09:47:59;;;;;;;;;;;;;;;1.65;nan;103036.31;5006533;28;19918;-84
2022/01/13 09:50:24;;;;;;;;;;;;;;;1.77;nan;103038.66;5008141;28;19929;-84
2022/01/13 09:52:50;;;;;;;;;;;;;;;1.80;nan;103035.97;5034586;28;19928;-85
2022/01/13 09:55:15;;;;;;;;;;;;;;;1.91;nan;103039.22;5017203;28;20352;-85
2022/01/13 09:57:43;;;;;;;;;;;;;;;2.11;nan;103037.91;5016757;28;19919;-85
2022/01/13 10:00:09;;;;;;;;;;;;;;;1.94;nan;103042.66;5013682;28;19928;-83
2022/01/13 10:02:34;;;;;;;;;;;;;;;1.93;nan;103049.59;4984116;28;19917;-83
2022/01/13 10:04:59;;;;;;;;;;;;;;;1.88;nan;103054.97;4987355;28;19918;-84
2022/01/13 10:07:32;;;;;;;;;;;;;;;1.87;nan;103052.38;5008470;28;19917;-84
2022/01/13 10:09:58;;;;;;;;;;;;;;;1.74;nan;103049.19;4996555;28;19924;-84
2022/01/13 10:12:40;;;;;;;;;;;;;;;1.55;nan;103063.47;5003588;28;19922;-84
2022/01/13 10:17:50;;;;;;;;;;;;;;;1.47;nan;103056.66;5013006;28;19918;-84
2022/01/13 10:20:16;;;;;;;;;;;;;;;1.44;nan;103051.50;5014407;28;19926;-84
2022/01/13 10:22:42;;;;;;;;;;;;;;;1.53;nan;103052.22;5017653;28;20075;-84
2022/01/13 10:25:08;;;;;;;;;;;;;;;1.52;nan;103053.09;5014234;28;19952;-84
2022/01/13 10:27:34;;;;;;;;;;;;;;;1.54;nan;103059.16;5005062;28;19924;-84
2022/01/13 10:30:04;;;;;;;;;;;;;;;1.66;nan;103056.28;5017547;28;19999;-84
2022/01/13 10:32:34;;;;;;;;;;;;;;;1.63;nan;103044.16;5008150;28;19928;-84
2022/01/13 10:35:01;;;;;;;;;;;;;;;1.80;nan;103042.97;5017564;28;20020;-84
2022/01/13 10:37:30;;;;;;;;;;;;;;;1.77;nan;103043.88;5033524;28;19977;-84
2022/01/13 10:39:57;;;;;;;;;;;;;;;1.79;nan;103047.31;5039004;28;19975;-84
2022/01/13 10:45:08;;;;;;;;;;;;;;;1.86;nan;103032.38;5026930;28;19972;-84
2022/01/13 10:47:34;;;;;;;;;;;;;;;1.89;nan;103030.56;5020339;28;19918;-84
2022/01/13 10:50:10;;;;;;;;;;;;;;;1.72;nan;103027.47;5026807;28;19944;-84
2022/01/13 10:52:35;;;;;;;;;;;;;;;1.66;nan;103028.44;5017647;28;19926;-84
2022/01/13 10:55:06;;;;;;;;;;;;;;;1.64;nan;103029.38;5000326;28;19999;-84
2022/01/13 10:57:31;;;;;;;;;;;;;;;1.68;nan;103026.66;5027461;28;19917;-84
2022/01/13 10:59:57;;;;;;;;;;;;;;;1.60;nan;103032.97;5017714;28;20294;-84
2022/01/13 11:02:23;;;;;;;;;;;;;;;1.73;nan;103029.19;5027502;28;19917;-84
2022/01/13 11:04:48;;;;;;;;;;;;;;;1.72;nan;103027.47;5014710;28;19922;-84
2022/01/13 11:07:17;;;;;;;;;;;;;;;1.66;nan;103035.41;5027697;28;19991;-84
2022/01/13 11:09:51;;;;;;;;;;;;;;;1.81;nan;103022.06;5005770;28;19918;-84
2022/01/13 11:12:16;;;;;;;;;;;;;;;1.86;nan;103021.94;5020684;28;19971;-84
2022/01/13 11:14:43;;;;;;;;;;;;;;;1.96;nan;103030.44;5030199;28;19933;-84
2022/01/13 11:17:10;;;;;;;;;;;;;;;2.14;nan;103022.16;5007798;28;19944;-84
2022/01/13 11:19:36;;;;;;;;;;;;;;;1.87;nan;103021.06;5022175;28;19917;-84
2022/01/13 11:22:01;;;;;;;;;;;;;;;1.97;nan;103021.72;5022123;28;19930;-84
2022/01/13 11:24:26;;;;;;;;;;;;;;;1.98;nan;103011.25;5027816;28;19925;-85
2022/01/13 11:26:53;;;;;;;;;;;;;;;2.03;nan;103018.97;5031153;28;19921;-84
2022/01/13 11:29:19;;;;;;;;;;;;;;;2.03;nan;103016.38;5029503;28;20383;-85
2022/01/13 11:31:44;;;;;;;;;;;;;;;2.08;nan;103004.91;5032506;28;19928;-85
2022/01/13 11:34:09;;;;;;;;;;;;;;;2.11;nan;103002.22;5033078;28;19917;-85
2022/01/13 11:36:35;;;;;;;;;;;;;;;2.16;nan;102999.50;5025613;28;19922;-84
2022/01/13 11:39:01;;;;;;;;;;;;;;;2.12;nan;102990.91;5033479;28;20302;-84
2022/01/13 11:41:26;;;;;;;;;;;;;;;2.19;nan;102990.75;5023457;28;19966;-85
2022/01/13 11:43:52;;;;;;;;;;;;;;;2.25;nan;102988.00;5034874;28;20384;-84
2022/01/13 11:46:21;;;;;;;;;;;;;;;2.20;nan;102985.50;5022156;28;20402;-85
2022/01/13 11:48:52;;;;;;;;;;;;;;;2.28;nan;102980.09;5025138;28;20379;-85
2022/01/13 11:51:20;;;;;;;;;;;;;;;2.20;nan;102982.88;5034561;28;19979;-85
2022/01/13 11:53:52;;;;;;;;;;;;;;;2.37;nan;102976.41;5025730;28;19918;-84
2022/01/13 11:56:18;;;;;;;;;;;;;;;2.49;nan;102973.47;5030929;28;20236;-85
2022/01/13 11:58:44;;;;;;;;;;;;;;;2.38;nan;102970.25;5031288;28;20337;-85
2022/01/13 12:01:17;;;;;;;;;;;;;;;2.48;nan;102970.00;5034137;28;20016;-84
2022/01/13 12:03:42;;;;;;;;;;;;;;;2.61;nan;102964.47;5032400;28;19925;-85
2022/01/13 12:06:09;;;;;;;;;;;;;;;2.45;nan;102957.00;5030099;28;20442;-84
2022/01/13 12:08:34;;;;;;;;;;;;;;;2.56;nan;102951.53;5033605;28;19917;-84
2022/01/13 12:10:59;;;;;;;;;;;;;;;2.68;nan;102947.72;5035310;28;19992;-86
2022/01/13 12:13:27;;;;;;;;;;;;;;;2.78;nan;102946.56;5038008;28;19928;-86
2022/01/13 12:15:52;;;;;;;;;;;;;;;2.88;nan;102942.78;5039358;28;19917;-83
2022/01/13 12:18:37;;;;;;;;;;;;;;;2.94;nan;102941.78;5033155;28;20434;-86
2022/01/13 12:21:20;;;;;;;;;;;;;;;3.04;nan;102945.84;5034293;28;19932;-84
2022/01/13 12:23:46;;;;;;;;;;;;;;;2.96;nan;102940.84;5035195;28;19928;-86
2022/01/13 12:26:30;;;;;;;;;;;;;;;2.90;nan;102945.38;5034532;28;19921;-87
2022/01/13 12:29:14;;;;;;;;;;;;;;;3.04;nan;102947.63;5031811;28;19989;-84
2022/01/13 12:31:50;;;;;;;;;;;;;;;3.17;nan;102947.22;5031873;28;19932;-85
2022/01/13 12:34:33;;;;;;;;;;;;;;;3.32;nan;102948.53;5036745;28;20012;-86
2022/01/13 12:37:21;;;;;;;;;;;;;;;3.18;nan;102954.16;5035474;28;19928;-87
2022/01/13 12:39:48;;;;;;;;;;;;;;;3.13;nan;102958.66;5032435;28;19921;-86
2022/01/13 12:42:15;;;;;;;;;;;;;;;3.29;nan;102955.59;5033940;28;20438;-86
2022/01/13 12:47:24;;;;;;;;;;;;;;;3.42;nan;102953.50;5037466;28;19924;-86
2022/01/13 12:49:49;;;;;;;;;;;;;;;3.32;nan;102947.69;5036230;28;19921;-85
2022/01/13 12:52:18;;;;;;;;;;;;;;;3.27;nan;102947.81;5036224;28;19932;-85
2022/01/13 12:54:45;;;;;;;;;;;;;;;3.28;nan;102946.91;5036648;28;19917;-84
2022/01/13 12:57:10;;;;;;;;;;;;;;;3.38;nan;102945.75;5035487;28;19917;-85
2022/01/13 12:59:35;;;;;;;;;;;;;;;3.47;nan;102943.75;5036341;28;20195;-85
2022/01/13 13:02:00;;;;;;;;;;;;;;;3.49;nan;102939.31;5035872;28;19928;-86
2022/01/13 13:04:29;;;;;;;;;;;;;;;3.43;nan;102935.13;5035602;28;19939;-84
2022/01/13 13:06:54;;;;;;;;;;;;;;;3.37;nan;102936.16;5036264;28;19932;-84
2022/01/13 13:09:21;;;;;;;;;;;;;;;3.42;nan;102933.41;5036723;28;20359;-85
2022/01/13 13:11:52;;;;;;;;;;;;;;;3.54;nan;102919.97;5035970;28;20350;-86
2022/01/13 13:14:29;;;;;;;;;;;;;;;3.56;nan;102925.16;5037936;28;19940;-84
2022/01/13 13:16:54;;;;;;;;;;;;;;;3.54;nan;102924.34;5039847;28;19928;-85